createdAt,value
2023-03-29T00:02:33.811Z,3.83
2023-03-29T00:06:39.465Z,3.55
2023-03-29T00:10:43.359Z,4.80
2023-03-29T00:14:46.597Z,6.47
2023-03-29T00:18:51.329Z,4.20
2023-03-29T00:22:54.439Z,4.55
2023-03-29T00:26:57.569Z,4.38
2023-03-29T00:31:11.493Z,4.60
2023-03-29T00:35:16.787Z,3.28
2023-03-29T00:39:20.953Z,5.45
2023-03-29T00:43:24.209Z,3.42
2023-03-29T00:47:32.859Z,5.80
2023-03-29T00:51:39.862Z,4.30
2023-03-29T00:55:48.808Z,3.75
2023-03-29T00:59:53.876Z,5.78
2023-03-29T01:04:05.097Z,2.90
2023-03-29T01:08:18.608Z,4.55
2023-03-29T01:12:25.743Z,5.25
2023-03-29T01:16:30.608Z,4.72
2023-03-29T01:20:49.225Z,4.95
2023-03-29T01:25:07.419Z,4.43
2023-03-29T01:29:15.600Z,5.50
2023-03-29T01:33:23.674Z,5.63
2023-03-29T01:37:34.101Z,4.57
2023-03-29T01:41:47.330Z,5.78
2023-03-29T01:45:56.842Z,4.88
2023-03-29T01:50:08.263Z,4.28
2023-03-29T01:54:16.007Z,5.00
2023-03-29T01:58:21.162Z,5.47
2023-03-29T02:02:28.745Z,5.05
2023-03-29T02:06:36.247Z,5.43
2023-03-29T02:10:39.945Z,5.03
2023-03-29T02:14:43.484Z,5.05
2023-03-29T02:18:50.696Z,4.90
2023-03-29T02:22:58.766Z,3.95
2023-03-29T02:27:02.660Z,5.95
2023-03-29T02:31:12.632Z,8.25
2023-03-29T02:35:22.071Z,5.63
2023-03-29T02:39:27.417Z,4.45
2023-03-29T02:43:31.310Z,5.15
2023-03-29T02:47:39.896Z,4.70
2023-03-29T02:51:49.071Z,6.15
2023-03-29T02:55:54.109Z,5.28
2023-03-29T03:00:00.135Z,4.13
2023-03-29T03:04:03.877Z,6.03
2023-03-29T03:08:09.175Z,4.30
2023-03-29T03:12:14.974Z,5.43
2023-03-29T03:20:41.225Z,4.10
2023-03-29T03:24:46.359Z,3.75
2023-03-29T03:28:49.487Z,5.20
2023-03-29T03:32:52.246Z,5.10
2023-03-29T03:36:57.756Z,3.70
2023-03-29T03:41:03.297Z,8.15
2023-03-29T03:45:08.507Z,5.22
2023-03-29T03:49:11.477Z,3.67
2023-03-29T03:53:15.320Z,5.90
2023-03-29T03:57:19.920Z,5.75
2023-03-29T04:01:22.884Z,8.98
2023-03-29T04:05:25.867Z,4.65
2023-03-29T04:09:29.813Z,5.55
2023-03-29T04:13:35.115Z,4.65
2023-03-29T04:17:38.239Z,4.63
2023-03-29T04:21:40.948Z,4.43
2023-03-29T04:25:43.986Z,5.15
2023-03-29T04:29:49.088Z,5.35
2023-03-29T04:33:52.307Z,5.38
2023-03-29T04:37:55.946Z,4.50
2023-03-29T04:41:59.030Z,4.50
2023-03-29T04:46:03.495Z,4.55
2023-03-29T04:50:09.047Z,4.47
2023-03-29T04:54:11.968Z,5.65
2023-03-29T04:58:15.204Z,5.03
2023-03-29T05:02:20.233Z,5.13
2023-03-29T05:06:23.180Z,6.32
2023-03-29T05:10:26.019Z,5.03
2023-03-29T05:14:28.991Z,4.53
2023-03-29T05:18:33.082Z,4.82
2023-03-29T05:22:36.547Z,4.38
2023-03-29T05:26:40.215Z,4.85
2023-03-29T05:30:43.316Z,3.90
2023-03-29T05:34:47.519Z,6.55
2023-03-29T05:38:52.458Z,12.48
2023-03-29T05:42:55.345Z,3.47
2023-03-29T05:47:01.699Z,4.10
2023-03-29T05:51:06.469Z,4.63
2023-03-29T05:55:10.633Z,5.28
2023-03-29T05:59:13.909Z,5.15
2023-03-29T06:03:21.131Z,5.32
2023-03-29T06:07:27.193Z,4.43
2023-03-29T06:11:30.739Z,5.60
2023-03-29T06:15:33.604Z,5.88
2023-03-29T06:19:36.845Z,4.80
2023-03-29T06:23:42.082Z,4.22
2023-03-29T06:27:46.904Z,3.85
2023-03-29T06:31:50.346Z,5.60
2023-03-29T06:35:53.624Z,5.70
2023-03-29T06:39:58.253Z,4.45
2023-03-29T06:44:01.646Z,4.63
2023-03-29T06:48:06.590Z,4.25
2023-03-29T06:52:10.356Z,5.82
2023-03-29T06:56:14.934Z,4.30
2023-03-29T07:00:28.235Z,4.55
2023-03-29T07:04:32.685Z,4.20
2023-03-29T07:08:43.323Z,4.70
2023-03-29T07:12:48.309Z,3.90
2023-03-29T07:16:52.170Z,4.18
2023-03-29T07:20:55.068Z,3.20
2023-03-29T07:24:58.358Z,2.90
2023-03-29T07:29:05.267Z,3.58
2023-03-29T07:33:09.767Z,3.40
2023-03-29T07:37:12.553Z,3.03
2023-03-29T07:41:15.867Z,3.75
2023-03-29T07:45:26.630Z,2.75
2023-03-29T07:49:31.307Z,3.00
2023-03-29T07:53:34.233Z,2.60
2023-03-29T07:57:37.413Z,2.85
2023-03-29T08:01:42.352Z,2.67
2023-03-29T08:05:46.249Z,2.83
2023-03-29T08:09:49.316Z,3.08
2023-03-29T08:13:53.080Z,3.28
2023-03-29T08:17:57.360Z,3.35
2023-03-29T08:22:02.955Z,2.92
2023-03-29T08:26:08.821Z,3.22
2023-03-29T08:30:12.636Z,3.15
2023-03-29T08:34:16.766Z,3.03
2023-03-29T08:38:19.933Z,2.47
2023-03-29T08:42:41.988Z,2.95
2023-03-29T08:46:50.863Z,3.00
2023-03-29T08:51:02.282Z,2.35
2023-03-29T08:55:15.704Z,2.10
2023-03-29T08:59:23.242Z,14.73
2023-03-29T09:03:30.136Z,2.08
2023-03-29T09:07:34.620Z,2.10
2023-03-29T09:11:56.386Z,2.22
2023-03-29T09:16:12.031Z,1.85
2023-03-29T09:20:25.201Z,2.05
2023-03-29T09:24:48.389Z,1.50
2023-03-29T09:29:02.946Z,1.58
2023-03-29T09:33:13.831Z,2.15
2023-03-29T09:37:24.807Z,1.98
2023-03-29T09:41:35.749Z,2.08
2023-03-29T09:45:42.093Z,1.80
2023-03-29T09:49:51.432Z,2.10
2023-03-29T09:53:59.688Z,1.90
2023-03-29T09:58:14.679Z,2.35
2023-03-29T10:02:21.464Z,2.05
2023-03-29T10:06:27.042Z,1.88
2023-03-29T10:10:34.989Z,1.70
2023-03-29T10:14:43.904Z,5.47
2023-03-29T10:18:47.490Z,2.13
2023-03-29T10:22:58.433Z,2.03
2023-03-29T10:27:04.000Z,1.92
2023-03-29T10:31:09.454Z,2.50
2023-03-29T10:35:23.856Z,2.13
2023-03-29T10:39:32.174Z,2.35
2023-03-29T10:43:39.526Z,2.53
2023-03-29T10:47:46.919Z,2.33
2023-03-29T10:51:51.776Z,2.80
2023-03-29T10:56:05.698Z,3.03
2023-03-29T11:00:19.967Z,3.90
2023-03-29T11:04:38.218Z,2.40
2023-03-29T11:08:50.800Z,3.80
2023-03-29T11:13:01.579Z,4.30
2023-03-29T11:17:17.435Z,3.00
2023-03-29T11:21:30.447Z,3.33
2023-03-29T11:25:43.433Z,5.25
2023-03-29T11:29:58.819Z,6.15
2023-03-29T11:34:17.829Z,2.50
2023-03-29T11:38:28.270Z,3.38
2023-03-29T11:42:34.673Z,4.03
2023-03-29T11:46:41.871Z,3.13
2023-03-29T11:50:52.598Z,3.70
2023-03-29T11:55:04.129Z,3.90
2023-03-29T11:59:14.803Z,2.80
2023-03-29T12:03:24.056Z,2.97
2023-03-29T12:07:33.228Z,2.58
2023-03-29T12:11:41.809Z,2.60
2023-03-29T12:15:49.739Z,2.50
2023-03-29T12:20:04.545Z,2.75
2023-03-29T12:24:08.274Z,3.13
2023-03-29T12:28:29.417Z,2.90
2023-03-29T12:32:50.839Z,2.58
2023-03-29T12:37:12.483Z,2.35
2023-03-29T12:41:21.910Z,2.75
2023-03-29T12:45:33.955Z,3.20
2023-03-29T12:49:39.720Z,2.42
2023-03-29T12:53:49.523Z,2.95
2023-03-29T12:58:06.139Z,2.35
2023-03-29T13:02:35.001Z,2.70
2023-03-29T13:07:05.694Z,1.98
2023-03-29T13:11:14.780Z,2.60
2023-03-29T13:15:25.454Z,2.70
2023-03-29T13:19:39.901Z,2.65
2023-03-29T13:23:54.634Z,3.10
2023-03-29T13:28:06.387Z,3.10
2023-03-29T13:32:34.956Z,2.95
2023-03-29T13:36:55.101Z,2.92
2023-03-29T13:41:03.742Z,2.55
2023-03-29T13:45:18.744Z,2.45
2023-03-29T13:49:25.817Z,3.65
2023-03-29T13:53:35.134Z,3.05
2023-03-29T13:57:43.869Z,2.45
2023-03-29T14:01:53.633Z,3.20
2023-03-29T14:06:01.429Z,3.15
2023-03-29T14:10:08.129Z,3.47
2023-03-29T14:14:12.903Z,3.33
2023-03-29T14:18:19.428Z,2.97
2023-03-29T14:22:22.768Z,2.75
2023-03-29T14:30:35.365Z,3.00
2023-03-29T14:34:40.721Z,4.35
2023-03-29T14:38:48.666Z,5.03
2023-03-29T14:42:53.455Z,3.83
2023-03-29T14:46:57.444Z,3.42
2023-03-29T14:51:00.758Z,2.83
2023-03-29T14:55:04.735Z,3.38
2023-03-29T14:59:26.488Z,3.45
2023-03-29T15:03:29.616Z,2.70
2023-03-29T15:07:34.685Z,3.17
2023-03-29T15:11:40.100Z,3.35
2023-03-29T15:15:45.280Z,2.90
2023-03-29T15:19:48.493Z,4.57
2023-03-29T15:24:00.176Z,3.10
2023-03-29T15:28:03.137Z,4.03
2023-03-29T15:32:10.283Z,3.55
2023-03-29T15:36:14.720Z,5.20
2023-03-29T15:40:21.545Z,4.45
2023-03-29T15:44:28.652Z,3.50
2023-03-29T15:48:34.008Z,3.38
2023-03-29T15:52:37.217Z,3.72
2023-03-29T15:56:48.816Z,6.07
2023-03-29T16:00:55.725Z,5.43
2023-03-29T16:05:01.949Z,5.28
2023-03-29T16:09:08.847Z,4.00
2023-03-29T16:13:14.696Z,4.65
2023-03-29T16:17:17.843Z,3.67
2023-03-29T16:21:24.519Z,4.38
2023-03-29T16:25:27.620Z,6.50
2023-03-29T16:29:30.828Z,7.53
2023-03-29T16:33:33.869Z,5.15
2023-03-29T16:37:38.396Z,5.53
2023-03-29T16:41:42.314Z,7.32
2023-03-29T16:45:46.398Z,8.10
2023-03-29T16:49:49.325Z,7.55
2023-03-29T16:53:54.327Z,3.97
2023-03-29T16:57:57.692Z,4.25
2023-03-29T17:02:03.247Z,3.25
2023-03-29T17:06:07.706Z,3.10
2023-03-29T17:10:13.443Z,3.55
2023-03-29T17:14:16.086Z,3.40
2023-03-29T17:18:19.320Z,3.20
2023-03-29T17:22:22.906Z,3.17
2023-03-29T17:26:27.684Z,4.43
2023-03-29T17:30:31.151Z,5.22
2023-03-29T17:34:34.343Z,5.32
2023-03-29T17:38:38.242Z,5.75
2023-03-29T17:42:46.647Z,5.72
2023-03-29T17:46:49.665Z,7.60
2023-03-29T17:50:52.923Z,7.20
2023-03-29T17:54:56.054Z,8.27
2023-03-29T17:59:00.696Z,7.57
2023-03-29T18:03:03.725Z,7.55
2023-03-29T18:07:06.918Z,7.07
2023-03-29T18:11:12.404Z,7.60
2023-03-29T18:15:16.922Z,9.73
2023-03-29T18:19:20.087Z,9.80
2023-03-29T18:23:26.460Z,9.48
2023-03-29T18:27:29.563Z,8.98
2023-03-29T18:31:33.990Z,9.23
2023-03-29T18:35:39.353Z,9.38
2023-03-29T18:39:43.357Z,10.77
2023-03-29T18:43:47.934Z,11.70
2023-03-29T18:47:56.121Z,12.35
2023-03-29T18:51:58.965Z,12.48
2023-03-29T18:56:03.021Z,12.20
2023-03-29T19:00:12.812Z,13.80
2023-03-29T19:04:17.022Z,14.48
2023-03-29T19:08:19.890Z,13.63
2023-03-29T19:12:22.846Z,13.98
2023-03-29T19:16:27.681Z,12.98
2023-03-29T19:20:32.165Z,12.10
2023-03-29T19:24:35.315Z,11.35
2023-03-29T19:28:37.850Z,11.23
2023-03-29T19:32:40.608Z,9.93
2023-03-29T19:36:44.847Z,12.20
2023-03-29T19:40:48.183Z,8.95
2023-03-29T19:44:51.300Z,9.95
2023-03-29T19:48:58.040Z,10.57
2023-03-29T19:53:02.401Z,9.57
2023-03-29T19:57:07.414Z,9.70
2023-03-29T20:01:10.471Z,9.30
2023-03-29T20:05:16.874Z,10.82
2023-03-29T20:09:21.210Z,13.00
2023-03-29T20:13:37.394Z,12.65
2023-03-29T20:17:42.016Z,12.77
2023-03-29T20:21:44.999Z,12.52
2023-03-29T20:29:52.678Z,11.73
2023-03-29T20:33:57.546Z,11.15
2023-03-29T20:38:00.879Z,10.18
2023-03-29T20:42:06.568Z,12.13
2023-03-29T20:46:18.554Z,11.05
2023-03-29T20:50:26.505Z,11.43
2023-03-29T20:54:29.404Z,13.18
2023-03-29T20:58:34.250Z,10.07
2023-03-29T21:02:38.344Z,12.35
2023-03-29T21:06:41.682Z,11.27
2023-03-29T21:10:48.086Z,10.27
2023-03-29T21:14:52.111Z,9.40
2023-03-29T21:18:55.063Z,9.75
2023-03-29T21:22:58.386Z,8.00
2023-03-29T21:27:02.028Z,7.60
2023-03-29T21:31:08.400Z,8.48
2023-03-29T21:35:13.030Z,8.57
2023-03-29T21:39:17.734Z,7.40
2023-03-29T21:43:23.095Z,7.80
2023-03-29T21:47:27.536Z,7.72
2023-03-29T21:51:30.097Z,7.43
2023-03-29T21:55:36.410Z,7.60
2023-03-29T21:59:39.363Z,6.05
2023-03-29T22:03:43.509Z,7.20
2023-03-29T22:07:50.548Z,7.13
2023-03-29T22:11:53.587Z,8.00
2023-03-29T22:16:00.167Z,7.03
2023-03-29T22:20:14.134Z,7.72
2023-03-29T22:24:17.896Z,9.27
2023-03-29T22:28:20.945Z,8.20
2023-03-29T22:32:23.831Z,7.25
2023-03-29T22:36:29.788Z,7.22
2023-03-29T22:40:33.521Z,7.93
2023-03-29T22:44:36.589Z,7.47
2023-03-29T22:48:40.062Z,7.60
2023-03-29T22:52:44.784Z,7.90
2023-03-29T22:56:48.046Z,7.57
2023-03-29T23:00:54.125Z,7.50
2023-03-29T23:04:57.107Z,7.65
2023-03-29T23:09:04.712Z,8.27
2023-03-29T23:13:10.206Z,6.78
2023-03-29T23:17:13.649Z,7.03
2023-03-29T23:25:21.102Z,7.53
2023-03-29T23:29:27.002Z,7.20
2023-03-29T23:33:33.679Z,7.47
2023-03-29T23:37:38.062Z,7.45
2023-03-29T23:41:42.606Z,7.88
2023-03-29T23:45:45.589Z,7.60
2023-03-29T23:49:48.522Z,9.15
2023-03-29T23:53:51.974Z,7.65
2023-03-29T23:57:56.390Z,7.70
